Flight Track Log - Related Links

Times and Time Zones

All times are in EDT time to prevent confusion due to time zone crossing. See the UAL235 flight status page for this flight to view local times or setup timezone preferences in your user account.

Time Position Orientation Groundspeed Altitude Reporting Facility
EDT Latitude Longitude Course Direction KTS MPH feet Rate Location/Type
Sat 03:11:32 PM 42.8685 -85.5575 239° Southwest  Level FlightAware Approximate
Sat 03:12:32 PM 42.8455 -85.6227 86° East  Level FlightAware Approximate
Sat 03:13:29 PM 42.8461 -85.6089 263° West 218 251 5,500  Level Chicago Center
Sat 03:17:30 PM 42.8067 -86.0186 260° West 277 319 16,000 2,100 Climbing Chicago Center
Sat 03:18:29 PM 42.7947 -86.1128 263° West 282 325 16,000  Level Chicago Center
Sat 03:19:30 PM 42.7853 -86.2208 260° West 282 325 16,000  Level Chicago Center
Sat 03:20:30 PM 42.7714 -86.3289 244° Southwest 282 325 16,000  Level Chicago Center
Sat 03:21:30 PM 42.7364 -86.4269 241° Southwest 287 330 16,000  Level Chicago Center
Sat 03:22:29 PM 42.6972 -86.5247 241° Southwest 292 336 16,000 -550 Level Chicago Center
Sat 03:23:30 PM 42.6481 -86.6428 242° Southwest 308 354 14,900 -1,300 Descending Chicago Center
Sat 03:24:29 PM 42.6047 -86.7517 241° Southwest 328 377 13,400 -1,462 Descending Chicago Center
Sat 03:25:29 PM 42.5611 -86.8578 241° Southwest 333 383 12,000 -1,339 Descending Chicago Center
Sat 03:26:30 PM 42.5194 -86.9608 240° Southwest 328 377 10,700 -900 Descending Chicago Center
Sat 03:27:29 PM 42.4797 -87.0553 246° West 314 361 10,200 -550 Descending Chicago Center
Sat 03:28:30 PM 42.4503 -87.1436 247° West 290 334 9,600 -545 Descending Chicago Center
Sat 03:29:30 PM 42.4247 -87.2261 249° West 285 328 9,100 -303 Descending Chicago Center
Sat 03:30:29 PM 42.3953 -87.3311 239° Southwest 280 322 9,000 -151 Descending Chicago Center
Sat 03:31:29 PM 42.3511 -87.4308 229° Southwest 280 322 8,800 -744 Descending Chicago Center
Sat 03:32:30 PM 42.3003 -87.5111 228° Southwest 280 322 7,500 -1,200 Descending Chicago Center
Sat 03:33:29 PM 42.2514 -87.5856 228° Southwest 280 322 6,400 -1,361 Descending Chicago Center
Sat 03:34:29 PM 42.2025 -87.6597 229° Southwest 275 316 4,800 -1,150 Descending Chicago Center
Sat 03:35:29 PM 42.1578 -87.7281 217° Southwest 263 303 4,100 -500 Descending Chicago Center
Sat 03:36:29 PM 42.1103 -87.7769 217° Southwest 242 278 3,800 -300 Descending Chicago Center

Login

Don't have an account? Register now (free) for customized features, flight alerts, and more!